Time;durP1;ratioP1;P1;durP2;ratioP2;P2;SDS_P1;SDS_P2;PMS_P1;PMS_P2;Temp;Humidity;BMP_temperature;BMP_pressure;BME280_temperature;BME280_humidity;BME280_pressure;Samples;Min_cycle;Max_cycle;Signal;HPM_P1;HPM_P2
2022/11/07 00:01:36;;;;;;;11.65;6.22;;;10.30;99.90;;;;;;5129365;27;20390;-76
2022/11/07 00:04:02;;;;;;;9.77;6.10;;;10.30;99.90;;;;;;5108172;28;20469;-75
2022/11/07 00:06:27;;;;;;;13.38;6.80;;;10.30;99.90;;;;;;5111033;27;20464;-75
2022/11/07 00:08:54;;;;;;;10.87;5.80;;;10.40;99.90;;;;;;5101502;28;20755;-75
2022/11/07 00:11:20;;;;;;;11.27;5.97;;;10.40;99.90;;;;;;5101235;27;20407;-76
2022/11/07 00:13:46;;;;;;;12.50;6.72;;;10.40;99.90;;;;;;5128727;27;20805;-75
2022/11/07 00:16:11;;;;;;;12.57;6.37;;;10.50;99.90;;;;;;5127929;27;20964;-76
2022/11/07 00:18:37;;;;;;;11.93;6.35;;;10.50;99.90;;;;;;5109636;27;20403;-76
2022/11/07 00:21:08;;;;;;;12.57;6.50;;;10.50;99.90;;;;;;5125128;27;20484;-76
2022/11/07 00:23:34;;;;;;;10.20;6.05;;;10.50;99.90;;;;;;5091552;28;20488;-75
2022/11/07 00:26:09;;;;;;;13.10;6.53;;;10.50;99.90;;;;;;5103776;28;20406;-76
2022/11/07 00:28:36;;;;;;;10.00;5.57;;;10.50;99.90;;;;;;5120048;27;20460;-75
2022/11/07 00:31:01;;;;;;;9.60;5.63;;;10.50;99.90;;;;;;5126952;27;20455;-75
2022/11/07 00:33:27;;;;;;;12.35;5.43;;;10.60;99.90;;;;;;5128085;27;20790;-76
2022/11/07 00:35:53;;;;;;;10.93;5.65;;;10.60;99.90;;;;;;5117722;27;20832;-75
2022/11/07 00:38:19;;;;;;;8.80;5.03;;;10.60;99.90;;;;;;5108385;28;20491;-76
2022/11/07 00:40:54;;;;;;;10.25;5.50;;;10.60;99.90;;;;;;5109584;27;20399;-76
2022/11/07 00:43:19;;;;;;;10.35;5.00;;;10.60;99.90;;;;;;5128196;27;20821;-76
2022/11/07 00:45:45;;;;;;;9.33;4.83;;;10.60;99.90;;;;;;5114409;27;20474;-76
2022/11/07 00:48:10;;;;;;;9.65;5.13;;;10.70;99.90;;;;;;5114313;27;20435;-75
2022/11/07 00:50:36;;;;;;;10.17;5.37;;;10.70;99.90;;;;;;5127685;27;20390;-75
2022/11/07 00:53:02;;;;;;;7.90;4.72;;;10.70;99.90;;;;;;5127954;27;20485;-75
2022/11/07 00:55:27;;;;;;;12.93;5.37;;;10.70;99.90;;;;;;5088934;28;20396;-76
2022/11/07 00:57:54;;;;;;;11.55;5.10;;;10.70;99.90;;;;;;5106816;28;20419;-76
2022/11/07 01:00:19;;;;;;;11.05;5.28;;;10.70;99.90;;;;;;5113329;28;20395;-75
2022/11/07 01:05:09;;;;;;;10.50;4.70;;;10.70;99.90;;;;;;5115320;28;20928;-75
2022/11/07 01:05:30;;;;;;;9.43;4.78;;;10.80;99.90;;;;;;5095667;28;21114;-75
2022/11/07 01:07:56;;;;;;;10.02;4.85;;;10.80;99.90;;;;;;5110386;28;20454;-75
2022/11/07 01:10:22;;;;;;;12.03;4.93;;;10.80;99.90;;;;;;5125294;28;20444;-75
2022/11/07 01:12:47;;;;;;;10.00;4.60;;;10.80;99.90;;;;;;5089689;28;20410;-75
2022/11/07 01:15:13;;;;;;;8.87;4.80;;;10.80;99.90;;;;;;5117689;28;20451;-76
2022/11/07 01:17:38;;;;;;;13.52;5.10;;;10.80;99.90;;;;;;5126858;28;20401;-76
2022/11/07 01:20:05;;;;;;;10.47;5.10;;;10.80;99.90;;;;;;5100259;28;20754;-75
2022/11/07 01:22:30;;;;;;;9.75;4.55;;;10.80;99.90;;;;;;5108973;28;20401;-75
2022/11/07 01:24:56;;;;;;;10.48;4.57;;;10.80;99.90;;;;;;5117881;28;20403;-75
2022/11/07 01:27:22;;;;;;;11.63;4.60;;;10.80;99.90;;;;;;5130936;27;20471;-75
2022/11/07 01:29:48;;;;;;;12.03;4.67;;;10.80;99.90;;;;;;5131171;27;20482;-75
2022/11/07 01:32:13;;;;;;;10.15;4.72;;;10.80;99.90;;;;;;5130484;27;20395;-75
2022/11/07 01:34:39;;;;;;;14.33;4.60;;;10.90;99.90;;;;;;5131161;27;20724;-75
2022/11/07 01:37:04;;;;;;;11.80;4.70;;;10.90;99.90;;;;;;5116690;27;20403;-75
2022/11/07 01:39:30;;;;;;;10.87;4.57;;;10.90;99.90;;;;;;5094355;28;20411;-76
2022/11/07 01:41:56;;;;;;;13.02;4.57;;;10.90;99.90;;;;;;5127338;27;20414;-76
2022/11/07 01:44:21;;;;;;;12.23;4.60;;;10.90;99.90;;;;;;5109448;28;20469;-75
2022/11/07 01:46:47;;;;;;;11.52;4.40;;;10.90;99.90;;;;;;5110735;27;20911;-75
2022/11/07 01:49:29;;;;;;;9.00;4.33;;;10.90;99.90;;;;;;5098735;28;20759;-75
2022/11/07 01:52:01;;;;;;;12.20;4.13;;;10.90;99.90;;;;;;5128245;27;20402;-75
2022/11/07 01:54:38;;;;;;;10.45;4.47;;;10.90;99.90;;;;;;5119451;27;20403;-75
2022/11/07 01:57:08;;;;;;;12.70;4.50;;;11.00;99.90;;;;;;5130582;27;20386;-76
2022/11/07 01:59:35;;;;;;;10.57;4.00;;;11.00;99.90;;;;;;5109315;28;20408;-76
2022/11/07 02:02:00;;;;;;;9.63;3.80;;;11.00;99.90;;;;;;5117609;27;20398;-76
2022/11/07 02:04:29;;;;;;;11.82;4.13;;;10.90;99.90;;;;;;5110981;28;20392;-75
2022/11/07 02:07:03;;;;;;;12.35;4.72;;;11.00;99.90;;;;;;5118140;27;20814;-75
2022/11/07 02:09:29;;;;;;;11.40;3.97;;;11.00;99.90;;;;;;5117674;27;20409;-76
2022/11/07 02:11:59;;;;;;;11.45;4.35;;;11.00;99.90;;;;;;5130244;27;20494;-75
2022/11/07 02:14:26;;;;;;;9.65;4.57;;;11.00;99.90;;;;;;5112316;27;21031;-75
2022/11/07 02:16:53;;;;;;;11.13;4.20;;;11.00;99.90;;;;;;5126359;27;20404;-76
2022/11/07 02:19:44;;;;;;;11.68;4.35;;;11.00;99.90;;;;;;5129037;27;20399;-75
2022/11/07 02:22:21;;;;;;;13.88;4.50;;;11.00;99.90;;;;;;5124523;27;20480;-75
2022/11/07 02:24:52;;;;;;;11.30;4.63;;;11.00;99.90;;;;;;5109934;27;20434;-75
2022/11/07 02:27:20;;;;;;;14.43;4.22;;;11.00;99.90;;;;;;5130082;27;20411;-75
2022/11/07 02:29:50;;;;;;;11.35;4.72;;;11.00;99.90;;;;;;5125397;27;20399;-75
2022/11/07 02:32:16;;;;;;;11.43;4.00;;;11.00;99.90;;;;;;5119938;27;20879;-75
2022/11/07 02:34:42;;;;;;;12.83;3.83;;;11.10;99.90;;;;;;5106126;28;20430;-75
2022/11/07 02:37:22;;;;;;;12.02;3.78;;;11.10;99.90;;;;;;5123048;27;20401;-76
2022/11/07 02:39:49;;;;;;;12.10;3.90;;;11.10;99.90;;;;;;5112586;27;20400;-75
2022/11/07 02:42:15;;;;;;;10.90;3.70;;;11.10;99.90;;;;;;5108223;28;20448;-76
2022/11/07 02:44:41;;;;;;;11.55;3.78;;;11.10;99.90;;;;;;5126820;27;20433;-75
2022/11/07 02:47:07;;;;;;;9.75;3.35;;;11.10;99.90;;;;;;5102771;28;20478;-75
2022/11/07 02:49:32;;;;;;;12.53;3.40;;;11.10;99.90;;;;;;5093445;27;20778;-75
2022/11/07 02:51:58;;;;;;;9.85;3.45;;;11.00;99.90;;;;;;5128827;27;20765;-75
2022/11/07 02:54:24;;;;;;;7.77;3.33;;;11.00;99.90;;;;;;5122709;27;20426;-75
2022/11/07 02:56:49;;;;;;;10.93;3.40;;;11.00;99.90;;;;;;5112971;27;21320;-76
2022/11/07 02:59:15;;;;;;;8.97;3.20;;;11.00;99.90;;;;;;5122589;27;20396;-76
2022/11/07 03:01:40;;;;;;;12.48;3.10;;;11.00;99.90;;;;;;5099634;27;21084;-75
2022/11/07 03:04:06;;;;;;;13.40;3.47;;;11.00;99.90;;;;;;5122095;27;20396;-75
2022/11/07 03:06:31;;;;;;;10.57;3.20;;;11.10;99.90;;;;;;5094662;27;20766;-75
2022/11/07 03:08:57;;;;;;;8.70;2.90;;;11.10;99.90;;;;;;5130659;27;20426;-75
2022/11/07 03:11:23;;;;;;;12.77;3.15;;;11.00;99.90;;;;;;5128604;27;20394;-75
2022/11/07 03:13:49;;;;;;;11.50;2.83;;;11.00;99.90;;;;;;5110200;27;20404;-73
2022/11/07 03:16:17;;;;;;;10.50;2.95;;;11.00;99.90;;;;;;5113165;27;20715;-73
2022/11/07 03:18:43;;;;;;;11.73;3.42;;;10.90;99.90;;;;;;5128157;27;20417;-73
2022/11/07 03:21:09;;;;;;;9.77;2.97;;;10.90;99.90;;;;;;5110555;27;20400;-73
2022/11/07 03:23:35;;;;;;;9.43;3.50;;;10.90;99.90;;;;;;5119560;27;20481;-73
2022/11/07 03:26:01;;;;;;;9.98;3.00;;;10.90;99.90;;;;;;5126730;27;20482;-73
2022/11/07 03:28:27;;;;;;;9.55;3.17;;;10.80;99.90;;;;;;5108821;28;20428;-73
2022/11/07 03:30:53;;;;;;;9.70;3.03;;;10.90;99.90;;;;;;5130170;27;20409;-73
2022/11/07 03:33:18;;;;;;;9.40;2.50;;;10.80;99.90;;;;;;5112215;27;20406;-73
2022/11/07 03:35:44;;;;;;;9.35;2.45;;;10.80;99.90;;;;;;5109376;27;21254;-75
2022/11/07 03:38:10;;;;;;;6.57;2.55;;;10.90;99.90;;;;;;5123635;27;20402;-75
2022/11/07 03:40:36;;;;;;;7.90;2.60;;;10.90;99.90;;;;;;5109546;27;20499;-76
2022/11/07 03:43:02;;;;;;;9.55;2.75;;;10.90;99.90;;;;;;5117843;27;20405;-75
2022/11/07 03:45:28;;;;;;;11.18;3.25;;;10.90;99.90;;;;;;5129519;27;20961;-76
2022/11/07 03:47:53;;;;;;;9.50;2.77;;;10.90;99.90;;;;;;5130311;27;20450;-76
2022/11/07 03:50:20;;;;;;;10.25;3.40;;;10.90;99.90;;;;;;5117224;27;20418;-76
2022/11/07 03:52:47;;;;;;;11.80;3.40;;;11.00;99.90;;;;;;5116905;27;20402;-75
2022/11/07 03:55:17;;;;;;;13.75;3.75;;;11.00;99.90;;;;;;5111109;27;20410;-75
2022/11/07 03:57:43;;;;;;;12.38;4.25;;;11.00;99.90;;;;;;5130026;27;20528;-75
2022/11/07 04:00:09;;;;;;;12.77;4.50;;;11.00;99.90;;;;;;5130080;27;20473;-75
2022/11/07 04:02:35;;;;;;;14.00;4.60;;;10.90;99.90;;;;;;5130002;27;20531;-75
2022/11/07 04:05:00;;;;;;;14.13;4.60;;;10.80;99.90;;;;;;5109986;27;20406;-75
2022/11/07 04:07:26;;;;;;;13.20;4.80;;;10.80;99.90;;;;;;5121236;27;20432;-75
2022/11/07 04:09:51;;;;;;;13.77;5.20;;;10.80;99.90;;;;;;5104515;27;20506;-75
2022/11/07 04:17:46;;;;;;;12.95;4.90;;;10.70;99.90;;;;;;5129369;27;20407;-75
2022/11/07 04:20:11;;;;;;;13.97;4.90;;;10.70;99.90;;;;;;5106777;28;20415;-75
2022/11/07 04:22:37;;;;;;;12.75;4.40;;;10.70;99.90;;;;;;5118943;27;20407;-75
2022/11/07 04:25:03;;;;;;;14.13;4.30;;;10.70;99.90;;;;;;5126141;27;20757;-75
2022/11/07 04:27:41;;;;;;;14.70;4.72;;;10.60;99.90;;;;;;5129095;27;20456;-75
2022/11/07 04:30:27;;;;;;;13.70;4.28;;;10.60;99.90;;;;;;5114045;27;20897;-75
2022/11/07 04:32:55;;;;;;;11.02;4.07;;;10.60;99.90;;;;;;5107919;27;20978;-75
2022/11/07 04:35:23;;;;;;;11.90;4.35;;;10.60;99.90;;;;;;5128743;27;20410;-75
2022/11/07 04:37:49;;;;;;;14.75;3.90;;;10.60;99.90;;;;;;5090280;28;20485;-75
2022/11/07 04:40:16;;;;;;;16.60;4.38;;;10.50;99.90;;;;;;5101999;27;20940;-75
2022/11/07 04:42:42;;;;;;;14.07;4.45;;;10.50;99.90;;;;;;5105564;28;20453;-75
2022/11/07 04:45:09;;;;;;;14.52;4.55;;;10.50;99.90;;;;;;5121086;27;20397;-75
2022/11/07 04:47:34;;;;;;;14.48;4.53;;;10.50;99.90;;;;;;5089260;28;20557;-75
2022/11/07 04:50:00;;;;;;;15.57;4.45;;;10.50;99.90;;;;;;5110125;28;20486;-75
2022/11/07 04:52:26;;;;;;;16.53;4.57;;;10.40;99.90;;;;;;5115227;28;20824;-75
2022/11/07 04:54:51;;;;;;;18.17;5.10;;;10.50;99.90;;;;;;5128770;27;20393;-75
2022/11/07 04:57:18;;;;;;;15.93;4.40;;;10.40;99.90;;;;;;5106688;28;20812;-75
2022/11/07 04:59:43;;;;;;;15.07;3.95;;;10.50;99.90;;;;;;5110489;28;20464;-75
2022/11/07 05:02:10;;;;;;;13.10;4.13;;;10.50;99.90;;;;;;5099645;28;20453;-75
2022/11/07 05:04:36;;;;;;;14.95;4.15;;;10.50;99.90;;;;;;5108727;28;20480;-75
2022/11/07 05:07:02;;;;;;;15.07;4.38;;;10.50;99.90;;;;;;5106344;28;20498;-75
2022/11/07 05:09:28;;;;;;;11.77;3.80;;;10.50;99.90;;;;;;5109721;28;20399;-75
2022/11/07 05:11:54;;;;;;;14.27;4.15;;;10.50;99.90;;;;;;5123784;28;20400;-75
2022/11/07 05:14:20;;;;;;;11.57;3.80;;;10.60;99.90;;;;;;5120796;28;20406;-75
2022/11/07 05:16:46;;;;;;;13.80;4.05;;;10.60;99.90;;;;;;5128568;28;20487;-75
2022/11/07 05:19:16;;;;;;;11.85;3.88;;;10.70;99.90;;;;;;5129127;28;20443;-75
2022/11/07 05:21:42;;;;;;;13.03;4.23;;;10.60;99.90;;;;;;5110013;28;20764;-75
2022/11/07 05:24:08;;;;;;;15.30;4.25;;;10.70;99.90;;;;;;5128947;28;20395;-75
2022/11/07 05:26:34;;;;;;;14.73;4.85;;;10.70;99.90;;;;;;5128344;28;20410;-75
2022/11/07 05:28:59;;;;;;;15.73;4.37;;;10.70;99.90;;;;;;5128646;28;20422;-73
2022/11/07 05:31:25;;;;;;;12.73;4.60;;;10.70;99.90;;;;;;5109816;28;20392;-75
2022/11/07 05:33:50;;;;;;;13.60;4.07;;;10.70;99.90;;;;;;5108745;28;20394;-75
2022/11/07 05:36:18;;;;;;;15.95;5.47;;;10.70;99.90;;;;;;5127720;28;20402;-75
2022/11/07 05:38:46;;;;;;;18.45;5.68;;;10.70;99.90;;;;;;5127958;28;20416;-75
2022/11/07 05:41:13;;;;;;;13.55;5.35;;;10.70;99.90;;;;;;5114725;28;20438;-75
2022/11/07 05:43:39;;;;;;;22.42;6.15;;;10.70;99.90;;;;;;5128933;28;20872;-75
2022/11/07 05:46:06;;;;;;;14.35;5.43;;;10.60;99.90;;;;;;5114620;28;20491;-75
2022/11/07 05:48:31;;;;;;;18.58;5.40;;;10.60;99.90;;;;;;5099609;28;20427;-75
2022/11/07 05:50:57;;;;;;;15.82;5.82;;;10.50;99.90;;;;;;5120604;28;20899;-75
2022/11/07 05:53:24;;;;;;;15.00;5.50;;;10.50;99.90;;;;;;5120753;28;20398;-75
2022/11/07 05:55:53;;;;;;;16.67;5.47;;;10.40;99.90;;;;;;5126736;28;20390;-75
2022/11/07 05:58:19;;;;;;;14.00;5.18;;;10.40;99.90;;;;;;5105551;28;20408;-76
2022/11/07 06:00:46;;;;;;;13.80;5.35;;;10.40;99.90;;;;;;5127464;28;20437;-75
2022/11/07 06:03:12;;;;;;;12.13;5.05;;;10.40;99.90;;;;;;5127169;28;20474;-75
2022/11/07 06:05:40;;;;;;;13.57;5.30;;;10.40;99.90;;;;;;5107245;28;20894;-75
2022/11/07 06:08:08;;;;;;;18.17;5.70;;;10.40;99.90;;;;;;5121727;28;20429;-75
2022/11/07 06:10:35;;;;;;;15.07;5.55;;;10.30;99.90;;;;;;5119420;28;21254;-76
2022/11/07 06:13:03;;;;;;;13.73;6.03;;;10.30;99.90;;;;;;5123354;27;20510;-75
2022/11/07 06:15:31;;;;;;;15.82;6.30;;;10.40;99.90;;;;;;5123117;27;20400;-75
2022/11/07 06:18:01;;;;;;;14.52;6.25;;;10.40;99.90;;;;;;5118238;27;20465;-75
2022/11/07 06:20:28;;;;;;;16.83;6.55;;;10.40;99.90;;;;;;5130791;27;20824;-75
2022/11/07 06:22:58;;;;;;;15.90;6.43;;;10.40;99.90;;;;;;5130778;27;20467;-75
2022/11/07 06:25:24;;;;;;;15.02;5.85;;;10.50;99.90;;;;;;5129195;27;20395;-76
2022/11/07 06:27:50;;;;;;;15.87;6.23;;;10.50;99.90;;;;;;5115755;27;21894;-75
2022/11/07 06:30:16;;;;;;;14.83;6.43;;;10.50;99.90;;;;;;5104556;28;20423;-75
2022/11/07 06:32:43;;;;;;;16.45;6.50;;;10.60;99.90;;;;;;5125781;27;20473;-75
2022/11/07 06:35:10;;;;;;;15.48;6.57;;;10.50;99.90;;;;;;5111353;28;20407;-76
2022/11/07 06:37:35;;;;;;;15.50;7.33;;;10.60;99.90;;;;;;5116747;27;20429;-75
2022/11/07 06:40:04;;;;;;;17.00;6.38;;;10.60;99.90;;;;;;5121406;27;20798;-75
2022/11/07 06:42:29;;;;;;;17.52;6.30;;;10.60;99.90;;;;;;5130915;27;20842;-75
2022/11/07 06:44:55;;;;;;;16.23;6.50;;;10.60;99.90;;;;;;5112531;27;20414;-75
2022/11/07 06:47:20;;;;;;;14.43;5.80;;;10.70;99.90;;;;;;5114547;27;20431;-76
2022/11/07 06:49:46;;;;;;;15.23;5.90;;;10.60;99.90;;;;;;5102664;27;20453;-75
2022/11/07 06:52:12;;;;;;;15.17;6.20;;;10.70;99.90;;;;;;5112895;27;20403;-75
2022/11/07 06:54:37;;;;;;;12.10;6.07;;;10.70;99.90;;;;;;5109615;28;20401;-74
2022/11/07 06:57:03;;;;;;;14.77;6.50;;;10.70;99.90;;;;;;5109554;28;20690;-75
2022/11/07 06:59:28;;;;;;;18.00;6.45;;;10.60;99.90;;;;;;5117670;27;21237;-74
2022/11/07 07:01:54;;;;;;;14.47;5.57;;;10.60;99.90;;;;;;5125678;27;20414;-74
2022/11/07 07:04:20;;;;;;;13.50;5.90;;;10.60;99.90;;;;;;5130778;27;20402;-74
2022/11/07 07:06:45;;;;;;;14.23;5.97;;;10.60;99.90;;;;;;5111029;27;20412;-74
2022/11/07 07:09:11;;;;;;;12.40;5.60;;;10.60;99.90;;;;;;5112715;27;20960;-74
2022/11/07 07:11:37;;;;;;;13.05;5.25;;;10.60;99.90;;;;;;5108613;28;20462;-75
2022/11/07 07:14:04;;;;;;;15.30;5.37;;;10.60;99.90;;;;;;5121147;27;20403;-75
2022/11/07 07:16:30;;;;;;;12.50;5.20;;;10.60;99.90;;;;;;5130557;27;20944;-75
2022/11/07 07:18:56;;;;;;;12.05;4.93;;;10.60;99.90;;;;;;5112571;27;20762;-75
2022/11/07 07:21:22;;;;;;;13.43;4.88;;;10.60;99.90;;;;;;5123662;27;20415;-75
2022/11/07 07:23:47;;;;;;;11.07;5.07;;;10.70;99.90;;;;;;5092073;28;20735;-75
2022/11/07 07:26:14;;;;;;;14.95;4.60;;;10.70;99.90;;;;;;5107945;27;20407;-75
2022/11/07 07:28:41;;;;;;;11.45;4.22;;;10.70;99.90;;;;;;5110089;27;20432;-75
2022/11/07 07:31:10;;;;;;;10.97;4.17;;;10.80;99.90;;;;;;5095915;27;20420;-75
2022/11/07 07:33:36;;;;;;;11.93;4.07;;;10.70;99.90;;;;;;5100751;27;20506;-75
2022/11/07 07:36:02;;;;;;;11.68;4.28;;;10.80;99.90;;;;;;5111613;27;20406;-75
2022/11/07 07:38:27;;;;;;;11.55;3.75;;;10.80;99.90;;;;;;5097102;28;20415;-75
2022/11/07 07:40:53;;;;;;;11.17;4.30;;;10.80;99.90;;;;;;5107487;27;20444;-75
2022/11/07 07:43:18;;;;;;;13.55;4.57;;;10.80;99.90;;;;;;5091907;28;20731;-75
2022/11/07 07:45:44;;;;;;;18.37;5.37;;;10.80;99.90;;;;;;5109788;27;20402;-76
2022/11/07 07:48:09;;;;;;;15.45;5.00;;;10.80;99.90;;;;;;5120723;27;20493;-75
2022/11/07 07:50:35;;;;;;;17.60;5.20;;;10.80;99.90;;;;;;5113764;27;20456;-76
2022/11/07 07:53:01;;;;;;;14.80;5.93;;;10.90;99.90;;;;;;5104239;27;20415;-75
2022/11/07 07:55:27;;;;;;;17.77;6.63;;;10.90;99.90;;;;;;5126459;27;20432;-76
2022/11/07 07:57:52;;;;;;;14.57;6.35;;;10.90;99.90;;;;;;5119506;27;20405;-75
2022/11/07 08:00:18;;;;;;;14.67;6.77;;;10.90;99.90;;;;;;5116649;27;20455;-75
2022/11/07 08:02:44;;;;;;;18.02;7.63;;;11.00;99.90;;;;;;5107929;28;20408;-75
2022/11/07 08:05:14;;;;;;;18.60;7.83;;;11.00;99.90;;;;;;5110063;27;20486;-75
2022/11/07 08:07:47;;;;;;;17.03;7.50;;;11.00;99.90;;;;;;5109722;28;20521;-75
2022/11/07 08:10:13;;;;;;;20.70;7.95;;;11.00;99.90;;;;;;5082414;28;20492;-75
2022/11/07 08:12:43;;;;;;;17.83;7.38;;;11.00;99.90;;;;;;5090469;28;20404;-75
2022/11/07 08:15:10;;;;;;;17.92;7.97;;;11.00;99.90;;;;;;5107622;28;20406;-75
2022/11/07 08:17:36;;;;;;;22.67;8.50;;;11.10;99.90;;;;;;5115364;27;20489;-75
2022/11/07 08:20:01;;;;;;;18.52;7.60;;;11.00;99.90;;;;;;5129092;27;20551;-75
2022/11/07 08:22:27;;;;;;;18.40;7.40;;;11.00;99.90;;;;;;5128281;27;20401;-75
2022/11/07 08:24:52;;;;;;;17.05;7.40;;;11.10;99.90;;;;;;5128780;27;20403;-75
2022/11/07 08:27:18;;;;;;;19.33;7.97;;;11.10;99.90;;;;;;5106052;28;20424;-75
2022/11/07 08:29:43;;;;;;;16.95;7.88;;;11.10;99.90;;;;;;5118539;27;20465;-75
2022/11/07 08:32:09;;;;;;;19.33;7.70;;;11.10;99.90;;;;;;5098635;28;20666;-75
2022/11/07 08:34:35;;;;;;;14.95;7.03;;;11.10;99.90;;;;;;5124988;27;20395;-75
2022/11/07 08:37:00;;;;;;;20.00;7.87;;;11.10;99.90;;;;;;5101055;27;20410;-75
2022/11/07 08:39:26;;;;;;;16.80;7.97;;;11.10;99.90;;;;;;5123453;27;20407;-75
2022/11/07 08:41:51;;;;;;;20.87;8.07;;;11.10;99.90;;;;;;5119871;27;20456;-75
2022/11/07 08:44:17;;;;;;;18.92;7.82;;;11.10;99.90;;;;;;5110709;27;20437;-75
2022/11/07 08:46:42;;;;;;;18.87;7.70;;;11.20;99.90;;;;;;5120455;27;20926;-75
2022/11/07 08:49:08;;;;;;;19.20;7.95;;;11.20;99.90;;;;;;5110476;27;20510;-75
2022/11/07 08:51:34;;;;;;;17.27;7.73;;;11.20;99.90;;;;;;5107283;28;20400;-75
2022/11/07 08:53:59;;;;;;;18.45;7.85;;;11.20;99.90;;;;;;5113788;27;20402;-75
2022/11/07 08:56:25;;;;;;;20.27;7.70;;;11.20;99.90;;;;;;5099156;28;20465;-75
2022/11/07 08:58:50;;;;;;;17.10;7.90;;;11.20;99.90;;;;;;5114105;27;20926;-75
2022/11/07 09:01:16;;;;;;;16.20;8.27;;;11.20;99.90;;;;;;5128947;28;20426;-75
2022/11/07 09:03:42;;;;;;;19.40;8.50;;;11.20;99.90;;;;;;5110376;28;20776;-75
2022/11/07 09:06:07;;;;;;;19.52;8.10;;;11.20;99.90;;;;;;5109704;28;20441;-75
2022/11/07 09:08:33;;;;;;;22.35;8.15;;;11.20;99.90;;;;;;5128156;28;20757;-75
2022/11/07 09:11:03;;;;;;;20.37;7.07;;;11.20;99.90;;;;;;5100926;28;20408;-75
2022/11/07 09:13:30;;;;;;;21.95;8.40;;;11.20;99.90;;;;;;5127438;28;20466;-75
2022/11/07 09:16:01;;;;;;;23.15;8.27;;;11.20;99.90;;;;;;5116144;28;20795;-75
2022/11/07 09:18:27;;;;;;;21.45;7.78;;;11.20;99.90;;;;;;5104090;28;20589;-75
2022/11/07 09:20:53;;;;;;;19.35;7.50;;;11.20;99.90;;;;;;5102808;28;20398;-75
2022/11/07 09:23:19;;;;;;;24.10;7.70;;;11.20;99.90;;;;;;5115358;28;20858;-75
2022/11/07 09:25:45;;;;;;;21.73;8.17;;;11.20;99.90;;;;;;5109678;28;20498;-75
2022/11/07 09:28:11;;;;;;;20.92;7.80;;;11.20;99.90;;;;;;5106643;28;20528;-75
2022/11/07 09:30:37;;;;;;;19.27;7.78;;;11.30;99.90;;;;;;5103636;28;20460;-75
2022/11/07 09:33:02;;;;;;;19.63;7.70;;;11.30;99.90;;;;;;5123741;28;20469;-75
2022/11/07 09:35:28;;;;;;;23.73;7.30;;;11.30;99.90;;;;;;5108573;28;20408;-75
2022/11/07 09:37:54;;;;;;;16.93;7.20;;;11.30;99.90;;;;;;5086422;28;20423;-75
2022/11/07 09:40:39;;;;;;;20.90;7.45;;;11.40;99.90;;;;;;5120054;28;20467;-75
2022/11/07 09:43:24;;;;;;;21.13;7.63;;;11.40;99.90;;;;;;5094781;28;20412;-75
2022/11/07 09:45:57;;;;;;;18.30;6.90;;;11.40;99.90;;;;;;5120434;28;20489;-75
2022/11/07 09:48:24;;;;;;;21.50;7.15;;;11.50;99.90;;;;;;5113553;27;20454;-74
2022/11/07 09:50:51;;;;;;;16.92;6.50;;;11.50;99.90;;;;;;5131899;27;20398;-75
2022/11/07 09:53:30;;;;;;;21.90;6.43;;;11.60;99.90;;;;;;5132368;27;20413;-75
2022/11/07 09:55:59;;;;;;;15.27;6.05;;;11.60;99.90;;;;;;5112528;27;20412;-75
2022/11/07 09:58:40;;;;;;;17.23;5.78;;;11.70;99.90;;;;;;5125859;27;20984;-75
2022/11/07 10:01:12;;;;;;;19.25;6.35;;;11.80;99.90;;;;;;5132667;27;20487;-75
2022/11/07 10:03:38;;;;;;;14.37;5.57;;;11.80;99.90;;;;;;5110016;28;20432;-75
2022/11/07 10:06:17;;;;;;;15.52;5.40;;;11.80;99.90;;;;;;5101481;28;20434;-75
2022/11/07 10:08:56;;;;;;;20.08;5.32;;;11.90;99.90;;;;;;5129769;27;21035;-75
2022/11/07 10:11:35;;;;;;;16.40;5.18;;;12.00;99.90;;;;;;5125199;27;20438;-75
2022/11/07 10:14:20;;;;;;;15.48;5.10;;;12.10;99.90;;;;;;5112895;27;20407;-74
2022/11/07 10:17:33;;;;;;;13.43;4.70;;;12.20;99.90;;;;;;5109724;28;20413;-75
2022/11/07 10:20:07;;;;;;;14.88;4.32;;;12.30;99.90;;;;;;5125288;27;20472;-75
2022/11/07 10:22:57;;;;;;;14.10;3.97;;;12.30;99.90;;;;;;5124332;27;20780;-75
2022/11/07 10:25:58;;;;;;;15.18;4.28;;;12.30;99.90;;;;;;5110124;28;20416;-75
2022/11/07 10:28:26;;;;;;;18.90;4.88;;;12.30;99.90;;;;;;5118916;27;20418;-75
2022/11/07 10:30:54;;;;;;;14.50;4.53;;;12.30;99.90;;;;;;5110599;27;20408;-75
2022/11/07 10:33:30;;;;;;;12.95;3.97;;;12.30;99.90;;;;;;5113513;27;20399;-75
2022/11/07 10:36:04;;;;;;;13.57;4.03;;;12.30;99.90;;;;;;5131676;27;20403;-75
2022/11/07 10:38:33;;;;;;;15.45;4.38;;;12.30;99.90;;;;;;5131153;27;20402;-75
2022/11/07 10:40:58;;;;;;;16.67;4.82;;;12.30;99.90;;;;;;5114225;27;20762;-75
2022/11/07 10:43:35;;;;;;;15.57;4.37;;;12.30;99.90;;;;;;5122473;27;20399;-75
2022/11/07 10:46:10;;;;;;;16.02;4.70;;;12.30;99.90;;;;;;5125071;27;20414;-75
2022/11/07 10:48:35;;;;;;;17.48;4.00;;;12.40;99.90;;;;;;5130978;27;21280;-75
2022/11/07 10:51:03;;;;;;;13.07;4.10;;;12.50;99.90;;;;;;5091954;28;20462;-75
2022/11/07 10:53:28;;;;;;;16.35;4.03;;;12.60;99.90;;;;;;5112546;27;20855;-75
2022/11/07 10:55:55;;;;;;;13.07;3.83;;;12.60;99.90;;;;;;5130896;27;20410;-75
2022/11/07 10:58:25;;;;;;;15.10;3.92;;;12.70;99.90;;;;;;5112016;27;20418;-75
2022/11/07 11:01:02;;;;;;;13.07;3.72;;;12.80;99.90;;;;;;5111464;27;20411;-75
2022/11/07 11:03:32;;;;;;;14.00;4.10;;;12.90;99.90;;;;;;5128998;27;20469;-75
2022/11/07 11:06:09;;;;;;;12.23;3.53;;;12.90;99.90;;;;;;5120219;27;20465;-75
2022/11/07 11:08:37;;;;;;;13.63;3.20;;;13.00;99.90;;;;;;5114204;27;20511;-75
2022/11/07 11:11:22;;;;;;;14.33;3.40;;;13.00;99.90;;;;;;5089927;28;20412;-75
2022/11/07 11:13:59;;;;;;;12.75;3.15;;;13.10;99.90;;;;;;5108851;28;20408;-75
2022/11/07 11:16:28;;;;;;;10.30;3.00;;;13.20;99.90;;;;;;5125805;27;20904;-75
2022/11/07 11:18:59;;;;;;;10.25;3.03;;;13.30;99.90;;;;;;5123234;27;20386;-75
2022/11/07 11:21:25;;;;;;;11.68;3.03;;;13.30;99.90;;;;;;5082272;27;20416;-75
2022/11/07 11:23:53;;;;;;;12.13;3.10;;;13.40;99.90;;;;;;5130029;27;20958;-75
2022/11/07 11:26:32;;;;;;;12.10;3.85;;;13.50;99.90;;;;;;5110250;27;20403;-75
2022/11/07 11:29:12;;;;;;;12.03;2.97;;;13.30;99.90;;;;;;5117905;27;20430;-75
2022/11/07 11:31:50;;;;;;;12.30;3.30;;;13.20;99.90;;;;;;5108694;28;20413;-75
2022/11/07 11:34:41;;;;;;;12.95;3.33;;;13.20;99.90;;;;;;5126508;27;20391;-75
2022/11/07 11:37:18;;;;;;;10.10;3.22;;;13.10;99.90;;;;;;5106109;27;20412;-75
2022/11/07 11:39:47;;;;;;;12.38;3.97;;;13.10;99.90;;;;;;5117492;27;20399;-74
2022/11/07 11:42:40;;;;;;;15.87;4.33;;;13.00;99.90;;;;;;5116870;27;20860;-75
2022/11/07 11:45:15;;;;;;;14.15;3.85;;;12.90;99.90;;;;;;5122753;27;20425;-75
2022/11/07 11:47:46;;;;;;;12.88;4.00;;;12.90;99.90;;;;;;5123995;27;20468;-75
2022/11/07 11:50:14;;;;;;;16.23;4.00;;;12.80;99.90;;;;;;5101244;28;20966;-75
2022/11/07 11:52:40;;;;;;;14.00;3.85;;;12.80;99.90;;;;;;5129694;27;21084;-75
2022/11/07 11:55:16;;;;;;;15.10;3.87;;;12.80;99.90;;;;;;5129528;27;20407;-75
2022/11/07 11:57:51;;;;;;;14.23;3.92;;;12.80;99.90;;;;;;5117789;27;20410;-75
2022/11/07 12:00:22;;;;;;;13.93;4.17;;;12.80;99.90;;;;;;5129490;27;20407;-75
2022/11/07 12:02:54;;;;;;;15.52;4.40;;;12.90;99.90;;;;;;5113095;27;20419;-76
2022/11/07 12:05:44;;;;;;;15.55;4.28;;;12.90;99.90;;;;;;5114317;27;20780;-75
2022/11/07 12:08:20;;;;;;;15.63;3.83;;;13.00;99.90;;;;;;5097900;28;20485;-75
2022/11/07 12:11:09;;;;;;;14.05;3.50;;;13.10;99.90;;;;;;5128378;27;20967;-74
2022/11/07 12:13:50;;;;;;;13.10;3.78;;;13.20;99.90;;;;;;5129365;27;20482;-75
2022/11/07 12:16:34;;;;;;;13.57;4.15;;;13.30;99.90;;;;;;5129638;27;20764;-75
2022/11/07 12:19:12;;;;;;;13.90;3.72;;;13.30;99.90;;;;;;5121860;27;20445;-75
2022/11/07 12:21:57;;;;;;;9.70;2.78;;;13.40;99.90;;;;;;5123644;27;20433;-75
2022/11/07 12:24:44;;;;;;;13.47;3.87;;;13.40;99.90;;;;;;5110700;28;20403;-75
2022/11/07 12:27:15;;;;;;;15.68;3.72;;;13.60;99.90;;;;;;5090517;28;20412;-75
2022/11/07 12:30:02;;;;;;;10.57;2.90;;;13.70;99.90;;;;;;5113952;27;20453;-75
2022/11/07 12:33:04;;;;;;;12.05;3.15;;;13.80;99.90;;;;;;5123214;27;20463;-75
2022/11/07 12:35:53;;;;;;;11.05;3.47;;;13.90;99.90;;;;;;5109053;28;20400;-75
2022/11/07 12:38:41;;;;;;;12.35;2.85;;;14.00;99.90;;;;;;5118268;27;20406;-75
2022/11/07 12:41:27;;;;;;;12.18;3.15;;;14.10;99.90;;;;;;5106270;28;20926;-75
2022/11/07 12:44:12;;;;;;;10.43;3.10;;;14.20;99.90;;;;;;5123953;27;20438;-74
2022/11/07 12:46:58;;;;;;;15.13;3.30;;;14.20;99.90;;;;;;5119836;27;20432;-75
2022/11/07 12:49:49;;;;;;;14.32;3.38;;;14.20;99.90;;;;;;5125046;27;20531;-75
2022/11/07 12:52:23;;;;;;;11.85;3.13;;;14.20;99.90;;;;;;5125155;27;20430;-75
2022/11/07 12:55:03;;;;;;;9.90;2.78;;;14.30;99.90;;;;;;5128910;27;20415;-75